createdAt,value
2022-10-23T00:00:54.334Z,11.34
2022-10-23T00:01:54.330Z,11.37
2022-10-23T00:02:54.395Z,11.22
2022-10-23T00:03:54.338Z,11.20
2022-10-23T00:04:54.309Z,11.30
2022-10-23T00:05:54.303Z,11.27
2022-10-23T00:06:54.291Z,11.31
2022-10-23T00:07:54.287Z,11.31
2022-10-23T00:08:54.273Z,11.34
2022-10-23T00:09:54.463Z,11.34
2022-10-23T00:10:54.281Z,11.37
2022-10-23T00:11:54.258Z,11.40
2022-10-23T00:12:54.291Z,11.33
2022-10-23T00:13:54.250Z,11.36
2022-10-23T00:14:54.219Z,11.34
2022-10-23T00:15:54.234Z,11.40
2022-10-23T00:16:54.229Z,11.37
2022-10-23T00:17:54.204Z,11.36
2022-10-23T00:18:54.208Z,11.30
2022-10-23T00:19:54.179Z,11.34
2022-10-23T00:20:54.238Z,11.34
2022-10-23T00:21:54.171Z,11.38
2022-10-23T00:22:54.185Z,11.33
2022-10-23T00:23:54.159Z,11.43
2022-10-23T00:24:54.148Z,11.46
2022-10-23T00:25:54.159Z,11.33
2022-10-23T00:26:54.131Z,11.23
2022-10-23T00:27:54.126Z,11.13
2022-10-23T00:28:54.115Z,11.16
2022-10-23T00:29:54.095Z,11.05
2022-10-23T00:30:54.131Z,11.03
2022-10-23T00:31:54.079Z,11.05
2022-10-23T00:32:54.072Z,11.11
2022-10-23T00:33:54.074Z,11.19
2022-10-23T00:34:54.053Z,11.18
2022-10-23T00:35:54.051Z,11.18
2022-10-23T00:36:54.054Z,11.25
2022-10-23T00:37:54.028Z,11.25
2022-10-23T00:38:54.013Z,11.30
2022-10-23T00:39:54.022Z,11.18
2022-10-23T00:40:54.031Z,11.13
2022-10-23T00:41:53.999Z,11.11
2022-10-23T00:42:53.990Z,11.08
2022-10-23T00:43:53.982Z,11.12
2022-10-23T00:44:53.978Z,11.11
2022-10-23T00:45:53.994Z,11.22
2022-10-23T00:46:53.989Z,11.11
2022-10-23T00:47:53.950Z,11.11
2022-10-23T00:48:53.953Z,11.00
2022-10-23T00:49:53.955Z,11.09
2022-10-23T00:50:53.933Z,10.98
2022-10-23T00:51:53.959Z,11.00
2022-10-23T00:52:53.916Z,10.95
2022-10-23T00:54:01.187Z,10.94
2022-10-23T00:54:54.889Z,10.83
2022-10-23T00:55:53.881Z,10.79
2022-10-23T00:56:53.878Z,10.83
2022-10-23T00:57:53.897Z,10.80
2022-10-23T00:58:53.879Z,10.72
2022-10-23T00:59:53.923Z,10.73
2022-10-23T01:00:53.845Z,10.78
2022-10-23T01:01:53.966Z,10.78
2022-10-23T01:02:53.856Z,10.70
2022-10-23T01:03:53.823Z,10.80
2022-10-23T01:04:53.812Z,10.78
2022-10-23T01:05:53.823Z,10.75
2022-10-23T01:06:53.793Z,10.85
2022-10-23T01:07:53.790Z,10.91
2022-10-23T01:08:53.803Z,10.94
2022-10-23T01:09:53.773Z,10.91
2022-10-23T01:10:53.788Z,10.73
2022-10-23T01:11:53.760Z,10.80
2022-10-23T01:12:53.747Z,10.91
2022-10-23T01:13:53.805Z,10.93
2022-10-23T01:14:53.724Z,10.86
2022-10-23T01:15:53.718Z,10.85
2022-10-23T01:16:53.823Z,10.82
2022-10-23T01:17:53.712Z,10.73
2022-10-23T01:18:53.718Z,10.82
2022-10-23T01:19:53.714Z,10.85
2022-10-23T01:20:53.690Z,10.82
2022-10-23T01:21:53.682Z,10.83
2022-10-23T01:22:53.671Z,10.82
2022-10-23T01:23:53.666Z,10.86
2022-10-23T01:24:53.648Z,10.85
2022-10-23T01:25:53.674Z,10.86
2022-10-23T01:26:53.636Z,10.72
2022-10-23T01:27:53.624Z,10.75
2022-10-23T01:28:53.623Z,10.72
2022-10-23T01:29:53.631Z,10.72
2022-10-23T01:30:53.608Z,10.62
2022-10-23T01:31:53.597Z,10.72
2022-10-23T01:32:53.585Z,10.75
2022-10-23T01:33:53.597Z,10.67
2022-10-23T01:34:53.575Z,10.73
2022-10-23T01:35:53.592Z,10.75
2022-10-23T01:36:53.581Z,10.73
2022-10-23T01:37:53.557Z,10.65
2022-10-23T01:38:53.590Z,10.73
2022-10-23T01:39:53.536Z,10.75
2022-10-23T01:40:53.534Z,10.78
2022-10-23T01:41:53.544Z,10.67
2022-10-23T01:42:53.506Z,10.72
2022-10-23T01:43:53.505Z,10.78
2022-10-23T01:44:53.563Z,10.70
2022-10-23T01:45:53.496Z,10.78
2022-10-23T01:46:53.481Z,10.64
2022-10-23T01:47:53.503Z,10.60
2022-10-23T01:48:53.495Z,10.70
2022-10-23T01:49:53.462Z,10.64
2022-10-23T01:50:53.455Z,10.55
2022-10-23T01:51:53.440Z,10.67
2022-10-23T01:52:53.435Z,10.78
2022-10-23T01:53:53.456Z,10.57
2022-10-23T01:54:53.427Z,10.70
2022-10-23T01:55:53.417Z,10.67
2022-10-23T01:56:53.420Z,10.60
2022-10-23T01:57:53.394Z,10.64
2022-10-23T01:58:53.414Z,10.65
2022-10-23T01:59:53.404Z,10.58
2022-10-23T02:00:53.973Z,10.54
2022-10-23T02:01:53.516Z,10.62
2022-10-23T02:02:53.357Z,10.62
2022-10-23T02:03:53.382Z,10.64
2022-10-23T02:04:53.353Z,10.65
2022-10-23T02:05:53.380Z,10.67
2022-10-23T02:06:53.364Z,10.72
2022-10-23T02:07:53.337Z,10.76
2022-10-23T02:08:53.317Z,10.73
2022-10-23T02:09:53.310Z,10.72
2022-10-23T02:10:53.301Z,10.64
2022-10-23T02:11:53.290Z,10.70
2022-10-23T02:12:53.298Z,10.57
2022-10-23T02:13:53.289Z,10.57
2022-10-23T02:14:53.274Z,10.57
2022-10-23T02:15:53.246Z,10.55
2022-10-23T02:16:53.267Z,10.61
2022-10-23T02:17:53.232Z,10.45
2022-10-23T02:18:53.228Z,10.48
2022-10-23T02:19:53.239Z,10.42
2022-10-23T02:20:53.220Z,10.48
2022-10-23T02:21:53.202Z,10.49
2022-10-23T02:22:53.196Z,10.45
2022-10-23T02:23:55.388Z,10.48
2022-10-23T02:24:53.197Z,10.61
2022-10-23T02:25:53.190Z,10.55
2022-10-23T02:26:53.166Z,10.60
2022-10-23T02:27:53.153Z,10.43
2022-10-23T02:28:53.201Z,10.46
2022-10-23T02:29:53.156Z,10.42
2022-10-23T02:30:53.148Z,10.46
2022-10-23T02:31:53.113Z,10.52
2022-10-23T02:32:53.115Z,10.46
2022-10-23T02:33:53.105Z,10.43
2022-10-23T02:34:53.097Z,10.27
2022-10-23T02:35:53.107Z,10.27
2022-10-23T02:36:53.080Z,10.30
2022-10-23T02:37:53.077Z,10.27
2022-10-23T02:38:53.068Z,10.27
2022-10-23T02:39:53.981Z,10.30
2022-10-23T02:40:53.046Z,10.24
2022-10-23T02:41:53.059Z,10.18
2022-10-23T02:42:53.037Z,10.10
2022-10-23T02:43:53.012Z,10.17
2022-10-23T02:44:53.016Z,10.18
2022-10-23T02:45:53.005Z,10.09
2022-10-23T02:46:53.073Z,10.21
2022-10-23T02:47:52.989Z,10.16
2022-10-23T02:48:52.982Z,10.23
2022-10-23T02:49:52.977Z,10.21
2022-10-23T02:50:52.975Z,10.17
2022-10-23T02:51:52.964Z,10.17
2022-10-23T02:52:52.977Z,10.16
2022-10-23T02:53:52.990Z,10.16
2022-10-23T02:54:52.936Z,10.20
2022-10-23T02:55:52.926Z,10.14
2022-10-23T02:56:52.920Z,10.16
2022-10-23T02:57:52.904Z,10.05
2022-10-23T02:58:52.928Z,9.94
2022-10-23T02:59:52.911Z,9.83
2022-10-23T03:00:52.887Z,9.72
2022-10-23T03:01:53.028Z,9.91
2022-10-23T03:02:52.869Z,9.98
2022-10-23T03:03:52.861Z,10.05
2022-10-23T03:04:52.860Z,10.10
2022-10-23T03:05:52.865Z,10.05
2022-10-23T03:07:00.366Z,9.99
2022-10-23T03:07:52.848Z,9.83
2022-10-23T03:08:52.823Z,9.73
2022-10-23T03:09:52.804Z,9.67
2022-10-23T03:10:52.824Z,9.63
2022-10-23T03:11:52.787Z,9.60
2022-10-23T03:12:52.805Z,9.59
2022-10-23T03:13:52.783Z,9.47
2022-10-23T03:14:52.781Z,9.63
2022-10-23T03:15:52.773Z,9.47
2022-10-23T03:16:52.778Z,9.60
2022-10-23T03:17:52.760Z,9.54
2022-10-23T03:18:52.733Z,9.59
2022-10-23T03:19:53.521Z,9.59
2022-10-23T03:20:52.721Z,9.57
2022-10-23T03:21:52.705Z,9.75
2022-10-23T03:22:52.697Z,9.73
2022-10-23T03:23:52.756Z,9.84
2022-10-23T03:24:52.721Z,9.85
2022-10-23T03:25:52.700Z,9.93
2022-10-23T03:26:52.682Z,9.88
2022-10-23T03:27:52.730Z,9.84
2022-10-23T03:28:52.777Z,9.85
2022-10-23T03:29:52.722Z,9.66
2022-10-23T03:30:52.636Z,9.55
2022-10-23T03:31:52.642Z,9.55
2022-10-23T03:32:53.512Z,9.47
2022-10-23T03:33:52.652Z,9.34
2022-10-23T03:34:52.604Z,9.29
2022-10-23T03:35:52.627Z,9.30
2022-10-23T03:36:52.579Z,9.12
2022-10-23T03:37:52.566Z,9.34
2022-10-23T03:38:52.573Z,9.23
2022-10-23T03:39:52.587Z,9.14
2022-10-23T03:40:52.560Z,9.22
2022-10-23T03:41:52.608Z,9.15
2022-10-23T03:42:52.546Z,9.15
2022-10-23T03:43:52.632Z,9.15
2022-10-23T03:44:52.528Z,9.08
2022-10-23T03:45:52.506Z,9.14
2022-10-23T03:46:52.508Z,9.12
2022-10-23T03:47:52.519Z,9.24
2022-10-23T03:48:52.484Z,9.29
2022-10-23T03:49:52.500Z,9.26
2022-10-23T03:50:52.564Z,9.15
2022-10-23T03:51:52.480Z,9.29
2022-10-23T03:52:52.464Z,9.32
2022-10-23T03:53:52.565Z,9.26
2022-10-23T03:54:52.460Z,9.15
2022-10-23T03:55:52.440Z,9.15
2022-10-23T03:56:55.113Z,8.98
2022-10-23T03:57:53.419Z,9.04
2022-10-23T03:58:52.418Z,9.06
2022-10-23T03:59:52.432Z,9.12
2022-10-23T04:00:52.393Z,9.16
2022-10-23T04:01:52.514Z,9.23
2022-10-23T04:02:52.403Z,9.15
2022-10-23T04:03:52.373Z,9.09
2022-10-23T04:04:52.360Z,9.09
2022-10-23T04:05:53.020Z,9.08
2022-10-23T04:06:52.367Z,8.96
2022-10-23T04:07:52.387Z,9.06
2022-10-23T04:08:52.330Z,9.11
2022-10-23T04:09:52.356Z,8.95
2022-10-23T04:10:52.321Z,8.99
2022-10-23T04:11:52.349Z,8.96
2022-10-23T04:12:53.032Z,8.98
2022-10-23T04:13:52.311Z,9.04
2022-10-23T04:14:52.281Z,9.11
2022-10-23T04:15:52.271Z,9.06
2022-10-23T04:16:52.263Z,9.14
2022-10-23T04:17:52.252Z,9.12
2022-10-23T04:18:52.259Z,9.24
2022-10-23T04:19:52.249Z,9.19
2022-10-23T04:20:52.225Z,9.30
2022-10-23T04:21:52.263Z,9.27
2022-10-23T04:22:52.212Z,9.23
2022-10-23T04:23:52.193Z,9.14
2022-10-23T04:24:52.195Z,9.12
2022-10-23T04:25:52.200Z,9.23
2022-10-23T04:26:52.205Z,9.36
2022-10-23T04:27:52.190Z,9.30
2022-10-23T04:28:52.178Z,9.33
2022-10-23T04:29:54.348Z,9.30
2022-10-23T04:30:52.163Z,9.33
2022-10-23T04:31:52.183Z,9.34
2022-10-23T04:32:52.171Z,9.23
2022-10-23T04:33:52.165Z,9.19
2022-10-23T04:34:52.102Z,9.16
2022-10-23T04:35:52.092Z,9.15
2022-10-23T04:36:52.959Z,9.15
2022-10-23T04:37:52.105Z,9.16
2022-10-23T04:38:52.071Z,9.27
2022-10-23T04:39:52.062Z,9.26
2022-10-23T04:40:52.062Z,9.29
2022-10-23T04:41:52.044Z,9.30
2022-10-23T04:42:52.047Z,9.22
2022-10-23T04:43:52.084Z,9.24
2022-10-23T04:44:52.021Z,9.19
2022-10-23T04:45:52.019Z,9.09
2022-10-23T04:46:52.008Z,8.99
2022-10-23T04:47:52.005Z,9.09
2022-10-23T04:48:51.994Z,9.03
2022-10-23T04:49:52.012Z,9.14
2022-10-23T04:50:51.983Z,9.15
2022-10-23T04:51:51.975Z,9.26
2022-10-23T04:52:52.008Z,9.40
2022-10-23T04:53:51.952Z,9.33
2022-10-23T04:54:51.960Z,9.50
2022-10-23T04:55:52.563Z,9.47
2022-10-23T04:56:51.943Z,9.50
2022-10-23T04:57:51.920Z,9.52
2022-10-23T04:58:51.911Z,9.50
2022-10-23T04:59:51.902Z,9.59
2022-10-23T05:00:51.922Z,9.55
2022-10-23T05:01:51.950Z,9.60
2022-10-23T05:02:51.886Z,9.51
2022-10-23T05:03:51.865Z,9.33
2022-10-23T05:04:51.869Z,9.23
2022-10-23T05:05:51.859Z,9.33
2022-10-23T05:06:51.907Z,9.19
2022-10-23T05:07:51.861Z,9.14
2022-10-23T05:08:51.835Z,9.11
2022-10-23T05:09:51.824Z,8.99
2022-10-23T05:10:51.816Z,9.04
2022-10-23T05:11:51.810Z,9.16
2022-10-23T05:12:51.792Z,9.09
2022-10-23T05:13:51.798Z,9.18
2022-10-23T05:14:51.784Z,9.22
2022-10-23T05:15:51.771Z,9.15
2022-10-23T05:16:51.782Z,9.15
2022-10-23T05:17:51.784Z,9.23
2022-10-23T05:18:51.826Z,9.24
2022-10-23T05:19:51.731Z,9.34
2022-10-23T05:20:51.727Z,9.37
2022-10-23T05:21:51.716Z,9.32
2022-10-23T05:22:51.714Z,9.26
2022-10-23T05:23:51.751Z,9.22
2022-10-23T05:24:51.732Z,9.15
2022-10-23T05:25:51.697Z,9.15
2022-10-23T05:26:51.683Z,9.12
2022-10-23T05:27:51.676Z,9.18
2022-10-23T05:28:51.677Z,9.32
2022-10-23T05:29:51.666Z,9.42
2022-10-23T05:30:51.669Z,9.23
2022-10-23T05:31:51.631Z,9.06
2022-10-23T05:32:51.627Z,8.95
2022-10-23T05:33:51.618Z,8.89
2022-10-23T05:34:51.612Z,8.95
2022-10-23T05:35:51.625Z,8.92
2022-10-23T05:36:51.609Z,8.77
2022-10-23T05:37:51.612Z,8.80
2022-10-23T05:38:51.588Z,8.90
2022-10-23T05:39:51.569Z,8.75
2022-10-23T05:40:51.561Z,8.88
2022-10-23T05:41:51.573Z,8.93
2022-10-23T05:42:54.975Z,8.90
2022-10-23T05:43:52.992Z,9.03
2022-10-23T05:44:51.739Z,9.04
2022-10-23T05:45:51.560Z,9.06
2022-10-23T05:46:52.054Z,8.93
2022-10-23T05:47:51.600Z,8.90
2022-10-23T05:48:51.668Z,8.86
2022-10-23T05:49:51.702Z,9.03
2022-10-23T05:50:51.476Z,8.95
2022-10-23T05:51:51.487Z,8.77
2022-10-23T05:52:51.637Z,8.86
2022-10-23T05:53:51.600Z,8.93
2022-10-23T05:54:51.440Z,8.95
2022-10-23T05:55:51.434Z,9.04
2022-10-23T05:56:51.482Z,9.12
2022-10-23T05:57:51.578Z,9.14
2022-10-23T05:58:51.558Z,9.16
2022-10-23T05:59:51.580Z,9.12
2022-10-23T06:00:51.522Z,9.09
2022-10-23T06:01:51.469Z,8.95
2022-10-23T06:02:51.392Z,8.90
2022-10-23T06:03:51.402Z,8.90
2022-10-23T06:04:51.364Z,9.01
2022-10-23T06:05:51.362Z,9.09
2022-10-23T06:06:51.347Z,9.14
2022-10-23T06:07:51.339Z,9.06
2022-10-23T06:08:51.419Z,9.01
2022-10-23T06:09:51.399Z,9.03
2022-10-23T06:10:51.312Z,9.16
2022-10-23T06:11:51.330Z,9.19
2022-10-23T06:12:51.395Z,9.16
2022-10-23T06:13:52.132Z,9.18
2022-10-23T06:14:51.991Z,9.15
2022-10-23T06:15:51.425Z,9.19
2022-10-23T06:16:51.280Z,9.19
2022-10-23T06:17:51.271Z,9.18
2022-10-23T06:18:51.265Z,9.16
2022-10-23T06:19:51.256Z,9.18
2022-10-23T06:20:51.708Z,8.99
2022-10-23T06:21:51.230Z,9.14
2022-10-23T06:22:51.539Z,8.99
2022-10-23T06:23:51.252Z,8.95
2022-10-23T06:24:51.340Z,8.95
2022-10-23T06:25:51.212Z,8.95
2022-10-23T06:26:51.173Z,8.90
2022-10-23T06:27:51.339Z,8.99
2022-10-23T06:28:51.159Z,9.08
2022-10-23T06:29:51.164Z,9.08
2022-10-23T06:30:51.150Z,9.06
2022-10-23T06:31:51.186Z,9.03
2022-10-23T06:32:51.141Z,9.15
2022-10-23T06:33:51.132Z,9.11
2022-10-23T06:34:51.123Z,9.18
2022-10-23T06:35:51.159Z,9.19
2022-10-23T06:36:51.125Z,8.86
2022-10-23T06:37:51.167Z,8.85
2022-10-23T06:38:51.154Z,8.80
2022-10-23T06:39:51.081Z,8.85
2022-10-23T06:40:51.099Z,8.93
2022-10-23T06:41:51.072Z,8.92
2022-10-23T06:42:51.049Z,8.96
2022-10-23T06:43:51.050Z,8.96
2022-10-23T06:44:51.030Z,8.88
2022-10-23T06:45:51.024Z,8.80
2022-10-23T06:46:51.076Z,8.83
2022-10-23T06:47:51.023Z,8.85
2022-10-23T06:48:51.009Z,8.90
2022-10-23T06:49:51.004Z,8.99
2022-10-23T06:50:50.972Z,9.04
2022-10-23T06:51:50.988Z,8.88
2022-10-23T06:52:51.027Z,8.90
2022-10-23T06:53:50.993Z,9.18
2022-10-23T06:54:50.957Z,9.18
2022-10-23T06:55:53.073Z,9.15
2022-10-23T06:56:50.952Z,9.14
2022-10-23T06:57:50.928Z,9.16
2022-10-23T06:58:50.920Z,9.34
2022-10-23T06:59:51.050Z,9.55
2022-10-23T07:00:50.939Z,9.62
2022-10-23T07:01:51.168Z,9.69
2022-10-23T07:02:50.881Z,9.67
2022-10-23T07:03:50.931Z,9.75
2022-10-23T07:04:50.866Z,9.66
2022-10-23T07:05:50.883Z,9.51
2022-10-23T07:06:50.844Z,9.52
2022-10-23T07:07:50.838Z,9.54
2022-10-23T07:08:50.824Z,9.55
2022-10-23T07:09:50.821Z,9.52
2022-10-23T07:10:50.854Z,9.52
2022-10-23T07:11:50.810Z,9.66
2022-10-23T07:12:50.798Z,9.69
2022-10-23T07:13:50.792Z,9.69
2022-10-23T07:14:50.800Z,9.73
2022-10-23T07:15:50.782Z,9.81
2022-10-23T07:16:50.781Z,9.78
2022-10-23T07:17:51.576Z,9.67
2022-10-23T07:18:50.746Z,9.63
2022-10-23T07:19:50.771Z,9.66
2022-10-23T07:20:50.751Z,9.90
2022-10-23T07:21:50.738Z,10.08
2022-10-23T07:22:50.713Z,10.05
2022-10-23T07:23:50.732Z,9.96
2022-10-23T07:24:50.712Z,9.72
2022-10-23T07:25:50.703Z,9.87
2022-10-23T07:27:50.680Z,9.83
2022-10-23T07:28:50.668Z,9.88
2022-10-23T07:29:50.659Z,9.85
2022-10-23T07:30:50.655Z,9.84
2022-10-23T07:31:50.644Z,9.91
2022-10-23T07:32:50.658Z,9.96
2022-10-23T07:33:50.630Z,9.88
2022-10-23T07:34:50.605Z,9.70
2022-10-23T07:35:50.605Z,9.78
2022-10-23T07:36:50.601Z,9.67
2022-10-23T07:37:50.592Z,9.65
2022-10-23T07:38:50.613Z,9.66
2022-10-23T07:39:50.575Z,9.85
2022-10-23T07:40:50.562Z,9.80
2022-10-23T07:41:50.552Z,9.80
2022-10-23T07:42:50.562Z,9.63
2022-10-23T07:43:50.565Z,9.55
2022-10-23T07:44:50.533Z,9.45
2022-10-23T07:45:50.527Z,9.45
2022-10-23T07:46:50.510Z,9.42
2022-10-23T07:47:50.507Z,9.52
2022-10-23T07:48:50.534Z,9.69
2022-10-23T07:49:50.501Z,9.66
2022-10-23T07:50:50.475Z,9.62
2022-10-23T07:51:51.481Z,9.48
2022-10-23T07:52:50.595Z,9.62
2022-10-23T07:53:50.457Z,9.72
2022-10-23T07:54:50.447Z,9.90
2022-10-23T07:55:50.441Z,10.02
2022-10-23T07:56:50.459Z,10.09
2022-10-23T07:57:50.421Z,10.10
2022-10-23T07:58:50.425Z,9.99
2022-10-23T07:59:50.413Z,9.99
2022-10-23T08:00:50.393Z,9.69
2022-10-23T08:01:52.592Z,9.80
2022-10-23T08:02:50.400Z,9.73
2022-10-23T08:03:50.381Z,9.84
2022-10-23T08:04:50.364Z,9.94
2022-10-23T08:05:50.397Z,9.90
2022-10-23T08:06:50.364Z,9.96
2022-10-23T08:07:50.370Z,9.91
2022-10-23T08:08:50.346Z,9.90
2022-10-23T08:09:50.330Z,9.70
2022-10-23T08:10:50.325Z,9.65
2022-10-23T08:11:50.312Z,9.59
2022-10-23T08:12:50.320Z,9.72
2022-10-23T08:13:50.320Z,9.75
2022-10-23T08:14:50.276Z,9.84
2022-10-23T08:15:50.275Z,9.88
2022-10-23T08:16:50.302Z,10.08
2022-10-23T08:17:50.258Z,10.01
2022-10-23T08:18:50.250Z,10.43
2022-10-23T08:19:50.260Z,10.64
2022-10-23T08:20:50.231Z,10.91
2022-10-23T08:21:50.223Z,10.90
2022-10-23T08:22:50.220Z,10.75
2022-10-23T08:23:50.219Z,10.93
2022-10-23T08:24:50.223Z,11.04
2022-10-23T08:25:50.194Z,11.09
2022-10-23T08:26:50.196Z,10.94
2022-10-23T08:27:52.171Z,10.85
2022-10-23T08:28:50.172Z,11.01
2022-10-23T08:29:50.169Z,11.19
2022-10-23T08:30:50.175Z,11.12
2022-10-23T08:31:50.138Z,11.28
2022-10-23T08:32:50.134Z,11.40
2022-10-23T08:34:50.113Z,11.19
2022-10-23T08:35:50.115Z,11.38
2022-10-23T08:36:50.133Z,11.48
2022-10-23T08:37:50.090Z,11.62
2022-10-23T08:38:50.100Z,11.87
2022-10-23T08:39:52.604Z,11.52
2022-10-23T08:40:50.080Z,11.62
2022-10-23T08:41:50.122Z,11.76
2022-10-23T08:42:50.084Z,11.93
2022-10-23T08:43:50.105Z,12.00
2022-10-23T08:44:50.037Z,12.00
2022-10-23T08:45:50.069Z,12.25
2022-10-23T08:46:50.040Z,12.38
2022-10-23T08:47:50.021Z,12.44
2022-10-23T08:48:49.995Z,12.36
2022-10-23T08:49:49.998Z,12.63
2022-10-23T08:50:49.977Z,12.50
2022-10-23T08:51:49.982Z,12.59
2022-10-23T08:52:49.993Z,12.58
2022-10-23T08:53:49.966Z,12.83
2022-10-23T08:54:49.953Z,12.81
2022-10-23T08:55:49.972Z,12.95
2022-10-23T08:56:49.940Z,12.93
2022-10-23T08:57:50.022Z,12.96
2022-10-23T08:58:50.006Z,13.13
2022-10-23T08:59:49.929Z,13.57
2022-10-23T09:00:49.938Z,13.97
2022-10-23T09:01:50.000Z,14.38
2022-10-23T09:02:49.892Z,14.56
2022-10-23T09:03:49.894Z,14.11
2022-10-23T09:04:49.879Z,14.23
2022-10-23T09:05:49.899Z,14.46
2022-10-23T09:06:49.887Z,13.72
2022-10-23T09:09:15.517Z,12.68
2022-10-23T09:10:15.495Z,13.06
2022-10-23T09:11:15.478Z,13.53
2022-10-23T09:12:15.506Z,13.76
2022-10-23T09:13:15.479Z,14.18
2022-10-23T09:14:15.466Z,14.74
2022-10-23T09:15:15.467Z,14.97
2022-10-23T09:16:15.440Z,15.38
2022-10-23T09:18:15.448Z,15.63
2022-10-23T09:19:15.421Z,16.10
2022-10-23T09:20:15.413Z,17.02
2022-10-23T09:21:15.401Z,17.75
2022-10-23T09:22:15.523Z,18.23
2022-10-23T09:23:15.389Z,19.00
2022-10-23T09:24:15.404Z,18.83
2022-10-23T09:25:15.368Z,18.38
2022-10-23T09:26:15.361Z,18.49
2022-10-23T09:27:15.354Z,18.06
2022-10-23T09:28:15.343Z,18.66
2022-10-23T09:29:15.331Z,18.96
2022-10-23T09:30:15.345Z,19.37
2022-10-23T09:31:15.318Z,19.44
2022-10-23T09:32:15.314Z,19.92
2022-10-23T09:33:15.313Z,19.87
2022-10-23T09:34:15.286Z,20.25
2022-10-23T09:35:15.303Z,20.77
2022-10-23T09:36:15.272Z,20.67
2022-10-23T09:37:15.275Z,20.70
2022-10-23T09:38:15.267Z,21.16
2022-10-23T09:39:15.270Z,21.22
2022-10-23T09:40:15.293Z,21.20
2022-10-23T09:41:15.234Z,20.92
2022-10-23T09:42:15.228Z,20.82
2022-10-23T09:43:15.225Z,20.93
2022-10-23T09:44:15.201Z,20.08
2022-10-23T09:45:15.226Z,20.12
2022-10-23T09:46:15.187Z,20.29
2022-10-23T09:47:15.174Z,20.70
2022-10-23T09:48:15.174Z,20.90
2022-10-23T09:49:15.173Z,21.18
2022-10-23T09:50:15.180Z,21.08
2022-10-23T09:51:15.168Z,21.18
2022-10-23T09:52:15.189Z,20.29
2022-10-23T09:53:15.138Z,19.93
2022-10-23T09:54:15.126Z,20.17
2022-10-23T09:55:15.127Z,19.97
2022-10-23T09:56:15.131Z,19.47
2022-10-23T09:57:15.100Z,19.26
2022-10-23T09:58:15.105Z,19.84
2022-10-23T09:59:15.100Z,20.79
2022-10-23T10:00:15.073Z,20.65
2022-10-23T10:01:15.152Z,20.75
2022-10-23T10:02:15.215Z,20.46
2022-10-23T10:03:15.075Z,19.82
2022-10-23T10:04:15.039Z,19.44
2022-10-23T10:05:15.032Z,18.85
2022-10-23T10:06:15.095Z,18.43
2022-10-23T10:07:15.013Z,18.54
2022-10-23T10:08:15.013Z,18.31
2022-10-23T10:09:15.024Z,18.01
2022-10-23T10:10:15.127Z,17.49
2022-10-23T10:11:14.993Z,17.19
2022-10-23T10:12:14.980Z,16.73
2022-10-23T10:13:15.137Z,16.65
2022-10-23T10:14:14.970Z,16.25
2022-10-23T10:15:14.982Z,16.36
2022-10-23T10:16:14.970Z,16.59
2022-10-23T10:17:14.934Z,16.58
2022-10-23T10:18:14.937Z,16.80
2022-10-23T10:19:14.936Z,16.74
2022-10-23T10:20:14.925Z,16.51
2022-10-23T10:21:14.914Z,16.34
2022-10-23T10:22:14.919Z,16.02
2022-10-23T10:23:14.897Z,15.85
2022-10-23T10:24:14.948Z,15.77
2022-10-23T10:25:14.945Z,15.65
2022-10-23T10:26:14.866Z,15.43
2022-10-23T10:27:14.874Z,15.35
2022-10-23T10:28:14.848Z,15.40
2022-10-23T10:29:14.832Z,15.44
2022-10-23T10:30:14.829Z,15.66
2022-10-23T10:31:14.812Z,15.78
2022-10-23T10:32:14.810Z,15.90
2022-10-23T10:33:14.817Z,15.91
2022-10-23T10:34:14.843Z,15.95
2022-10-23T10:35:14.873Z,15.91
2022-10-23T10:36:14.828Z,16.14
2022-10-23T10:37:14.786Z,16.32
2022-10-23T10:38:14.758Z,16.51
2022-10-23T10:39:14.746Z,16.59
2022-10-23T10:40:14.739Z,16.52
2022-10-23T10:41:14.730Z,16.57
2022-10-23T10:42:14.966Z,16.70
2022-10-23T10:43:14.710Z,16.73
2022-10-23T10:44:14.699Z,16.59
2022-10-23T10:45:14.699Z,16.42
2022-10-23T10:47:17.160Z,16.25
2022-10-23T10:48:15.706Z,16.14
2022-10-23T10:49:14.670Z,16.03
2022-10-23T10:50:14.732Z,16.37
2022-10-23T10:51:14.647Z,16.42
2022-10-23T10:52:14.661Z,16.55
2022-10-23T10:53:14.635Z,16.54
2022-10-23T10:54:14.651Z,16.73
2022-10-23T10:55:14.616Z,16.64
2022-10-23T10:56:14.613Z,16.47
2022-10-23T10:57:14.598Z,16.55
2022-10-23T10:58:14.594Z,16.61
2022-10-23T10:59:14.601Z,16.79
2022-10-23T11:00:14.694Z,16.91
2022-10-23T11:01:14.689Z,16.95
2022-10-23T11:02:14.746Z,16.80
2022-10-23T11:03:14.544Z,16.64
2022-10-23T11:04:14.546Z,16.51
2022-10-23T11:05:14.557Z,16.58
2022-10-23T11:06:14.556Z,16.79
2022-10-23T11:07:14.522Z,16.74
2022-10-23T11:08:14.521Z,16.74
2022-10-23T11:09:20.154Z,16.72
2022-10-23T11:10:15.580Z,16.73
2022-10-23T11:11:14.485Z,16.84
2022-10-23T11:12:14.483Z,16.88
2022-10-23T11:13:14.466Z,16.97
2022-10-23T11:14:14.466Z,17.20
2022-10-23T11:15:14.448Z,17.37
2022-10-23T11:16:14.526Z,17.50
2022-10-23T11:17:14.465Z,17.66
2022-10-23T11:18:14.445Z,17.83
2022-10-23T11:19:14.477Z,17.88
2022-10-23T11:20:14.499Z,17.93
2022-10-23T11:21:14.434Z,17.76
2022-10-23T11:22:14.456Z,17.62
2022-10-23T11:23:14.393Z,17.27
2022-10-23T11:24:14.402Z,17.56
2022-10-23T11:25:14.369Z,17.81
2022-10-23T11:26:18.833Z,17.71
2022-10-23T11:27:15.410Z,17.50
2022-10-23T11:28:14.369Z,17.76
2022-10-23T11:29:14.354Z,17.97
2022-10-23T11:30:14.346Z,18.21
2022-10-23T11:31:14.328Z,18.42
2022-10-23T11:32:14.339Z,18.36
2022-10-23T11:33:14.336Z,18.34
2022-10-23T11:34:14.307Z,18.42
2022-10-23T11:35:14.382Z,18.21
2022-10-23T11:36:14.273Z,18.11
2022-10-23T11:37:14.282Z,18.03
2022-10-23T11:38:14.269Z,18.18
2022-10-23T11:39:14.272Z,18.28
2022-10-23T11:40:14.251Z,18.24
2022-10-23T11:41:14.239Z,18.18
2022-10-23T11:42:14.252Z,18.36
2022-10-23T11:43:14.243Z,18.41
2022-10-23T11:44:14.218Z,18.39
2022-10-23T11:45:14.213Z,18.39
2022-10-23T11:46:14.215Z,18.34
2022-10-23T11:47:14.231Z,18.12
2022-10-23T11:48:14.190Z,18.12
2022-10-23T11:49:14.209Z,18.17
2022-10-23T11:50:14.251Z,17.86
2022-10-23T11:51:14.188Z,17.65
2022-10-23T11:52:14.157Z,17.57
2022-10-23T11:53:15.471Z,17.73
2022-10-23T11:54:14.138Z,17.79
2022-10-23T11:55:14.129Z,17.79
2022-10-23T11:56:14.156Z,17.86
2022-10-23T11:57:14.157Z,17.78
2022-10-23T11:58:14.107Z,17.72
2022-10-23T11:59:14.156Z,17.71
2022-10-23T12:00:14.108Z,17.62
2022-10-23T12:01:14.188Z,17.75
2022-10-23T12:02:14.157Z,17.63
2022-10-23T12:03:14.064Z,17.45
2022-10-23T12:04:14.130Z,17.54
2022-10-23T12:05:14.063Z,17.47
2022-10-23T12:06:14.049Z,17.56
2022-10-23T12:07:14.035Z,17.69
2022-10-23T12:08:14.014Z,17.71
2022-10-23T12:09:14.010Z,17.81
2022-10-23T12:10:14.018Z,17.84
2022-10-23T12:11:13.992Z,18.18
2022-10-23T12:12:14.005Z,18.24
2022-10-23T12:13:13.975Z,18.33
2022-10-23T12:15:13.962Z,18.20
2022-10-23T12:16:13.966Z,18.01
2022-10-23T12:17:14.007Z,18.23
2022-10-23T12:18:13.961Z,18.12
2022-10-23T12:19:13.929Z,18.03
2022-10-23T12:20:13.977Z,17.99
2022-10-23T12:21:13.955Z,18.05
2022-10-23T12:22:13.991Z,18.09
2022-10-23T12:23:13.890Z,18.17
2022-10-23T12:24:13.883Z,18.23
2022-10-23T12:25:13.878Z,18.28
2022-10-23T12:26:13.872Z,18.18
2022-10-23T12:27:13.889Z,18.20
2022-10-23T12:28:13.879Z,18.34
2022-10-23T12:29:13.850Z,18.42
2022-10-23T12:30:13.831Z,18.39
2022-10-23T12:31:13.827Z,18.49
2022-10-23T12:32:13.822Z,18.52
2022-10-23T12:33:13.814Z,18.42
2022-10-23T12:34:13.823Z,18.23
2022-10-23T12:35:13.812Z,17.75
2022-10-23T12:36:13.782Z,17.75
2022-10-23T12:37:13.772Z,17.75
2022-10-23T12:38:13.773Z,17.90
2022-10-23T12:39:13.892Z,18.03
2022-10-23T12:40:13.749Z,17.97
2022-10-23T12:41:13.746Z,17.99
2022-10-23T12:42:13.734Z,17.97
2022-10-23T12:43:13.727Z,18.01
2022-10-23T12:44:13.712Z,17.97
2022-10-23T12:45:13.743Z,17.91
2022-10-23T12:46:16.902Z,17.91
2022-10-23T12:47:13.692Z,17.93
2022-10-23T12:48:13.679Z,17.86
2022-10-23T12:49:13.681Z,17.88
2022-10-23T12:50:13.679Z,17.84
2022-10-23T12:51:13.653Z,17.73
2022-10-23T12:52:13.642Z,17.69
2022-10-23T12:53:13.688Z,17.73
2022-10-23T12:54:13.636Z,17.28
2022-10-23T12:55:13.682Z,17.28
2022-10-23T12:56:13.636Z,17.17
2022-10-23T12:57:13.615Z,17.06
2022-10-23T12:58:13.624Z,16.92
2022-10-23T12:59:13.594Z,17.09
2022-10-23T13:00:13.633Z,17.16
2022-10-23T13:01:13.686Z,17.22
2022-10-23T13:02:13.901Z,17.28
2022-10-23T13:03:13.556Z,17.25
2022-10-23T13:04:13.579Z,17.22
2022-10-23T13:05:13.544Z,16.99
2022-10-23T13:06:13.546Z,17.01
2022-10-23T13:07:13.552Z,17.16
2022-10-23T13:08:13.527Z,17.22
2022-10-23T13:09:13.532Z,17.28